sensor_id;sensor_type;location;lat;lon;timestamp;pressure;altitude;pressure_sealevel;temperature;humidity
14089;BME280;7120;52.890;6.040;2023-06-14T00:00:13;101666.59;;;17.04;55.82
14089;BME280;7120;52.890;6.040;2023-06-14T00:02:39;101668.88;;;17.02;55.89
14089;BME280;7120;52.890;6.040;2023-06-14T00:05:05;101671.16;;;17.00;56.13
14089;BME280;7120;52.890;6.040;2023-06-14T00:07:36;101680.56;;;16.90;57.64
14089;BME280;7120;52.890;6.040;2023-06-14T00:10:02;101679.09;;;16.84;56.87
14089;BME280;7120;52.890;6.040;2023-06-14T00:12:28;101679.44;;;16.83;56.81
14089;BME280;7120;52.890;6.040;2023-06-14T00:14:53;101681.88;;;16.75;57.46
14089;BME280;7120;52.890;6.040;2023-06-14T00:17:19;101674.72;;;16.74;56.75
14089;BME280;7120;52.890;6.040;2023-06-14T00:19:44;101682.53;;;16.72;57.10
14089;BME280;7120;52.890;6.040;2023-06-14T00:22:09;101686.72;;;16.70;57.54
14089;BME280;7120;52.890;6.040;2023-06-14T00:24:35;101687.34;;;16.67;56.97
14089;BME280;7120;52.890;6.040;2023-06-14T00:27:01;101683.13;;;16.61;57.70
14089;BME280;7120;52.890;6.040;2023-06-14T00:29:26;101675.44;;;16.49;58.38
14089;BME280;7120;52.890;6.040;2023-06-14T00:31:51;101676.91;;;16.46;58.55
14089;BME280;7120;52.890;6.040;2023-06-14T00:34:17;101684.72;;;16.53;59.02
14089;BME280;7120;52.890;6.040;2023-06-14T00:36:42;101689.09;;;16.54;58.81
14089;BME280;7120;52.890;6.040;2023-06-14T00:39:08;101683.56;;;16.45;58.77
14089;BME280;7120;52.890;6.040;2023-06-14T00:41:34;101683.56;;;16.45;59.61
14089;BME280;7120;52.890;6.040;2023-06-14T00:44:00;101687.00;;;16.42;59.56
14089;BME280;7120;52.890;6.040;2023-06-14T00:46:25;101684.22;;;16.42;58.91
14089;BME280;7120;52.890;6.040;2023-06-14T00:48:51;101688.91;;;16.42;59.30
14089;BME280;7120;52.890;6.040;2023-06-14T00:51:16;101682.41;;;16.38;59.97
14089;BME280;7120;52.890;6.040;2023-06-14T00:53:42;101678.97;;;16.32;59.99
14089;BME280;7120;52.890;6.040;2023-06-14T00:56:12;101680.13;;;16.31;60.27
14089;BME280;7120;52.890;6.040;2023-06-14T00:58:39;101683.84;;;16.27;61.19
14089;BME280;7120;52.890;6.040;2023-06-14T01:01:04;101688.38;;;16.23;60.74
14089;BME280;7120;52.890;6.040;2023-06-14T01:03:29;101687.22;;;16.15;61.41
14089;BME280;7120;52.890;6.040;2023-06-14T01:06:09;101687.84;;;16.12;61.74
14089;BME280;7120;52.890;6.040;2023-06-14T01:09:02;101691.56;;;16.07;62.38
14089;BME280;7120;52.890;6.040;2023-06-14T01:11:29;101686.69;;;16.04;62.36
14089;BME280;7120;52.890;6.040;2023-06-14T01:13:56;101689.75;;;16.03;62.38
14089;BME280;7120;52.890;6.040;2023-06-14T01:16:23;101688.41;;;15.91;63.34
14089;BME280;7120;52.890;6.040;2023-06-14T01:18:49;101686.16;;;15.93;63.77
14089;BME280;7120;52.890;6.040;2023-06-14T01:21:21;101683.03;;;15.86;64.33
14089;BME280;7120;52.890;6.040;2023-06-14T01:23:46;101683.16;;;15.81;64.96
14089;BME280;7120;52.890;6.040;2023-06-14T01:26:18;101687.06;;;15.80;65.25
14089;BME280;7120;52.890;6.040;2023-06-14T01:28:44;101682.47;;;15.76;66.12
14089;BME280;7120;52.890;6.040;2023-06-14T01:31:17;101685.38;;;15.71;66.99
14089;BME280;7120;52.890;6.040;2023-06-14T01:33:43;101683.06;;;15.64;67.06
14089;BME280;7120;52.890;6.040;2023-06-14T01:36:09;101686.44;;;15.61;67.90
14089;BME280;7120;52.890;6.040;2023-06-14T01:38:36;101690.13;;;15.56;67.91
14089;BME280;7120;52.890;6.040;2023-06-14T01:41:02;101680.88;;;15.52;68.54
14089;BME280;7120;52.890;6.040;2023-06-14T01:43:29;101688.81;;;15.54;69.23
14089;BME280;7120;52.890;6.040;2023-06-14T01:45:56;101695.47;;;15.53;69.42
14089;BME280;7120;52.890;6.040;2023-06-14T01:48:23;101693.16;;;15.46;69.95
14089;BME280;7120;52.890;6.040;2023-06-14T01:50:49;101694.91;;;15.42;70.60
14089;BME280;7120;52.890;6.040;2023-06-14T01:53:15;101703.84;;;15.48;70.73
14089;BME280;7120;52.890;6.040;2023-06-14T01:55:40;101698.16;;;15.44;71.26
14089;BME280;7120;52.890;6.040;2023-06-14T01:58:09;101696.03;;;15.41;71.15
14089;BME280;7120;52.890;6.040;2023-06-14T02:00:34;101701.97;;;15.34;72.66
14089;BME280;7120;52.890;6.040;2023-06-14T02:03:00;101694.66;;;15.30;72.32
14089;BME280;7120;52.890;6.040;2023-06-14T02:05:25;101695.59;;;15.25;73.18
14089;BME280;7120;52.890;6.040;2023-06-14T02:07:52;101689.75;;;15.27;73.44
14089;BME280;7120;52.890;6.040;2023-06-14T02:10:22;101695.31;;;15.35;73.78
14089;BME280;7120;52.890;6.040;2023-06-14T02:12:47;101701.81;;;15.31;74.38
14089;BME280;7120;52.890;6.040;2023-06-14T02:15:13;101697.84;;;15.23;74.96
14089;BME280;7120;52.890;6.040;2023-06-14T02:17:43;101689.38;;;15.20;75.42
14089;BME280;7120;52.890;6.040;2023-06-14T02:20:09;101696.47;;;15.12;75.84
14089;BME280;7120;52.890;6.040;2023-06-14T02:22:35;101683.31;;;15.09;76.31
14089;BME280;7120;52.890;6.040;2023-06-14T02:25:00;101698.81;;;15.05;77.16
14089;BME280;7120;52.890;6.040;2023-06-14T02:27:25;101692.50;;;15.04;77.87
14089;BME280;7120;52.890;6.040;2023-06-14T02:29:51;101688.72;;;15.00;78.04
14089;BME280;7120;52.890;6.040;2023-06-14T02:32:16;101697.53;;;15.02;77.99
14089;BME280;7120;52.890;6.040;2023-06-14T02:34:41;101696.31;;;14.95;80.04
14089;BME280;7120;52.890;6.040;2023-06-14T02:37:07;101703.88;;;14.89;80.38
14089;BME280;7120;52.890;6.040;2023-06-14T02:39:32;101703.50;;;14.82;81.60
14089;BME280;7120;52.890;6.040;2023-06-14T02:41:57;101696.34;;;14.81;81.03
14089;BME280;7120;52.890;6.040;2023-06-14T02:44:26;101695.13;;;14.87;81.42
14089;BME280;7120;52.890;6.040;2023-06-14T02:46:53;101696.84;;;14.83;81.59
14089;BME280;7120;52.890;6.040;2023-06-14T02:49:19;101693.38;;;14.77;82.69
14089;BME280;7120;52.890;6.040;2023-06-14T02:51:44;101691.88;;;14.71;83.46
14089;BME280;7120;52.890;6.040;2023-06-14T02:54:10;101695.03;;;14.65;84.44
14089;BME280;7120;52.890;6.040;2023-06-14T02:56:36;101700.13;;;14.71;84.54
14089;BME280;7120;52.890;6.040;2023-06-14T02:59:02;101693.72;;;14.62;85.81
14089;BME280;7120;52.890;6.040;2023-06-14T03:01:27;101702.22;;;14.52;87.14
14089;BME280;7120;52.890;6.040;2023-06-14T03:03:59;101700.28;;;14.52;87.13
14089;BME280;7120;52.890;6.040;2023-06-14T03:06:24;101695.69;;;14.48;87.61
14089;BME280;7120;52.890;6.040;2023-06-14T03:08:50;101706.38;;;14.49;88.28
14089;BME280;7120;52.890;6.040;2023-06-14T03:11:16;101707.41;;;14.53;87.57
14089;BME280;7120;52.890;6.040;2023-06-14T03:13:45;101710.16;;;14.53;87.86
14089;BME280;7120;52.890;6.040;2023-06-14T03:16:12;101714.94;;;14.48;89.00
14089;BME280;7120;52.890;6.040;2023-06-14T03:18:37;101710.75;;;14.37;89.90
14089;BME280;7120;52.890;6.040;2023-06-14T03:21:03;101712.50;;;14.46;90.30
14089;BME280;7120;52.890;6.040;2023-06-14T03:23:28;101712.78;;;14.45;90.69
14089;BME280;7120;52.890;6.040;2023-06-14T03:25:54;101717.91;;;14.38;91.29
14089;BME280;7120;52.890;6.040;2023-06-14T03:28:19;101729.81;;;14.33;92.85
14089;BME280;7120;52.890;6.040;2023-06-14T03:30:45;101722.06;;;14.35;92.70
14089;BME280;7120;52.890;6.040;2023-06-14T03:33:10;101729.81;;;14.33;93.50
14089;BME280;7120;52.890;6.040;2023-06-14T03:35:36;101728.38;;;14.36;94.77
14089;BME280;7120;52.890;6.040;2023-06-14T03:38:01;101731.13;;;14.36;93.67
14089;BME280;7120;52.890;6.040;2023-06-14T03:40:27;101728.72;;;14.48;94.41
14089;BME280;7120;52.890;6.040;2023-06-14T03:42:56;101732.38;;;14.57;92.82
14089;BME280;7120;52.890;6.040;2023-06-14T03:45:21;101735.25;;;14.52;93.21
14089;BME280;7120;52.890;6.040;2023-06-14T03:47:47;101736.47;;;14.46;94.84
14089;BME280;7120;52.890;6.040;2023-06-14T03:50:13;101733.41;;;14.47;94.80
14089;BME280;7120;52.890;6.040;2023-06-14T03:52:38;101741.97;;;14.46;93.93
14089;BME280;7120;52.890;6.040;2023-06-14T03:55:04;101743.59;;;14.47;95.25
14089;BME280;7120;52.890;6.040;2023-06-14T03:57:30;101737.28;;;14.46;94.30
14089;BME280;7120;52.890;6.040;2023-06-14T03:59:55;101750.34;;;14.54;96.16
14089;BME280;7120;52.890;6.040;2023-06-14T04:02:21;101742.88;;;14.55;95.24
14089;BME280;7120;52.890;6.040;2023-06-14T04:04:47;101753.00;;;14.60;95.41
14089;BME280;7120;52.890;6.040;2023-06-14T04:07:17;101759.56;;;14.72;94.58
14089;BME280;7120;52.890;6.040;2023-06-14T04:09:45;101751.44;;;14.81;93.19
14089;BME280;7120;52.890;6.040;2023-06-14T04:12:11;101748.78;;;14.76;93.97
14089;BME280;7120;52.890;6.040;2023-06-14T04:14:37;101754.47;;;14.79;94.35
14089;BME280;7120;52.890;6.040;2023-06-14T04:17:02;101758.75;;;14.86;93.09
14089;BME280;7120;52.890;6.040;2023-06-14T04:19:28;101759.69;;;14.95;92.59
14089;BME280;7120;52.890;6.040;2023-06-14T04:21:53;101762.63;;;14.98;93.07
14089;BME280;7120;52.890;6.040;2023-06-14T04:24:18;101773.09;;;15.10;90.93
14089;BME280;7120;52.890;6.040;2023-06-14T04:26:45;101779.44;;;15.10;93.01
14089;BME280;7120;52.890;6.040;2023-06-14T04:29:13;101777.31;;;14.94;93.76
14089;BME280;7120;52.890;6.040;2023-06-14T04:31:42;101775.16;;;15.04;95.03
14089;BME280;7120;52.890;6.040;2023-06-14T04:34:09;101776.19;;;15.08;93.58
14089;BME280;7120;52.890;6.040;2023-06-14T04:36:41;101788.63;;;15.06;93.94
14089;BME280;7120;52.890;6.040;2023-06-14T04:39:17;101786.97;;;15.19;93.29
14089;BME280;7120;52.890;6.040;2023-06-14T04:41:43;101788.97;;;15.27;92.85
14089;BME280;7120;52.890;6.040;2023-06-14T04:44:08;101795.19;;;15.32;92.45
14089;BME280;7120;52.890;6.040;2023-06-14T04:46:35;101794.38;;;15.32;91.29
14089;BME280;7120;52.890;6.040;2023-06-14T04:49:09;101792.47;;;15.55;91.48
14089;BME280;7120;52.890;6.040;2023-06-14T04:51:35;101798.59;;;15.52;91.49
14089;BME280;7120;52.890;6.040;2023-06-14T04:54:02;101796.66;;;15.52;91.02
14089;BME280;7120;52.890;6.040;2023-06-14T04:56:28;101799.41;;;15.66;91.18
14089;BME280;7120;52.890;6.040;2023-06-14T04:58:54;101801.94;;;15.85;88.95
14089;BME280;7120;52.890;6.040;2023-06-14T05:01:21;101791.59;;;15.90;87.95
14089;BME280;7120;52.890;6.040;2023-06-14T05:03:48;101799.94;;;15.99;88.31
14089;BME280;7120;52.890;6.040;2023-06-14T05:06:14;101803.25;;;16.10;87.06
14089;BME280;7120;52.890;6.040;2023-06-14T05:08:41;101802.69;;;16.22;85.93
14089;BME280;7120;52.890;6.040;2023-06-14T05:11:06;101808.56;;;16.29;85.61
14089;BME280;7120;52.890;6.040;2023-06-14T05:13:31;101804.94;;;16.19;86.10
14089;BME280;7120;52.890;6.040;2023-06-14T05:15:58;101807.56;;;16.25;86.26
14089;BME280;7120;52.890;6.040;2023-06-14T05:18:24;101813.81;;;16.39;84.23
14089;BME280;7120;52.890;6.040;2023-06-14T05:20:50;101805.19;;;16.40;85.89
14089;BME280;7120;52.890;6.040;2023-06-14T05:23:16;101813.91;;;16.56;84.10
14089;BME280;7120;52.890;6.040;2023-06-14T05:25:45;101816.34;;;16.58;82.65
14089;BME280;7120;52.890;6.040;2023-06-14T05:28:11;101814.88;;;16.60;83.91
14089;BME280;7120;52.890;6.040;2023-06-14T05:30:38;101816.91;;;16.77;82.15
14089;BME280;7120;52.890;6.040;2023-06-14T05:33:04;101801.00;;;16.83;82.28
14089;BME280;7120;52.890;6.040;2023-06-14T05:35:30;101815.44;;;16.71;81.75
14089;BME280;7120;52.890;6.040;2023-06-14T05:37:55;101822.03;;;17.01;80.62
14089;BME280;7120;52.890;6.040;2023-06-14T05:40:20;101816.78;;;16.91;81.02
14089;BME280;7120;52.890;6.040;2023-06-14T05:42:46;101819.25;;;17.01;79.82
14089;BME280;7120;52.890;6.040;2023-06-14T05:45:11;101825.94;;;17.00;80.95
14089;BME280;7120;52.890;6.040;2023-06-14T05:47:37;101824.00;;;17.18;78.48
14089;BME280;7120;52.890;6.040;2023-06-14T05:50:02;101827.41;;;17.06;79.63
14089;BME280;7120;52.890;6.040;2023-06-14T05:52:27;101825.81;;;17.22;78.91
14089;BME280;7120;52.890;6.040;2023-06-14T05:54:53;101828.59;;;17.48;79.06
14089;BME280;7120;52.890;6.040;2023-06-14T05:57:18;101828.44;;;17.62;79.06
14089;BME280;7120;52.890;6.040;2023-06-14T05:59:44;101832.34;;;17.61;77.95
14089;BME280;7120;52.890;6.040;2023-06-14T06:02:10;101838.84;;;17.65;76.74
14089;BME280;7120;52.890;6.040;2023-06-14T06:04:35;101830.56;;;17.65;75.80
14089;BME280;7120;52.890;6.040;2023-06-14T06:07:01;101842.94;;;17.94;75.30
14089;BME280;7120;52.890;6.040;2023-06-14T06:09:26;101839.66;;;18.00;73.23
14089;BME280;7120;52.890;6.040;2023-06-14T06:11:51;101845.53;;;17.81;72.45
14089;BME280;7120;52.890;6.040;2023-06-14T06:14:17;101844.53;;;18.03;73.23
14089;BME280;7120;52.890;6.040;2023-06-14T06:16:42;101843.53;;;18.25;73.09
14089;BME280;7120;52.890;6.040;2023-06-14T06:19:07;101836.66;;;18.31;73.00
14089;BME280;7120;52.890;6.040;2023-06-14T06:21:33;101828.66;;;18.47;71.05
14089;BME280;7120;52.890;6.040;2023-06-14T06:23:58;101841.47;;;18.69;69.03
14089;BME280;7120;52.890;6.040;2023-06-14T06:26:24;101843.91;;;18.53;70.09
14089;BME280;7120;52.890;6.040;2023-06-14T06:28:51;101846.81;;;18.65;67.62
14089;BME280;7120;52.890;6.040;2023-06-14T06:31:17;101841.81;;;18.97;67.22
14089;BME280;7120;52.890;6.040;2023-06-14T06:33:42;101847.78;;;19.08;64.40
14089;BME280;7120;52.890;6.040;2023-06-14T06:36:08;101845.44;;;19.18;65.46
14089;BME280;7120;52.890;6.040;2023-06-14T06:38:33;101849.50;;;19.42;65.05
14089;BME280;7120;52.890;6.040;2023-06-14T06:40:58;101858.81;;;19.46;63.67
14089;BME280;7120;52.890;6.040;2023-06-14T06:43:24;101855.38;;;19.70;61.33
14089;BME280;7120;52.890;6.040;2023-06-14T06:45:52;101848.13;;;19.78;62.46
14089;BME280;7120;52.890;6.040;2023-06-14T06:48:17;101857.25;;;19.78;60.43
14089;BME280;7120;52.890;6.040;2023-06-14T06:50:43;101866.09;;;19.92;57.95
14089;BME280;7120;52.890;6.040;2023-06-14T06:53:08;101858.69;;;20.17;58.29
14089;BME280;7120;52.890;6.040;2023-06-14T06:55:33;101867.19;;;20.33;61.62
14089;BME280;7120;52.890;6.040;2023-06-14T06:58:00;101871.31;;;20.48;60.02
14089;BME280;7120;52.890;6.040;2023-06-14T07:00:25;101871.00;;;20.98;57.26
14089;BME280;7120;52.890;6.040;2023-06-14T07:02:51;101867.63;;;21.17;52.53
14089;BME280;7120;52.890;6.040;2023-06-14T07:05:17;101877.09;;;21.65;50.57
14089;BME280;7120;52.890;6.040;2023-06-14T07:07:42;101879.84;;;22.33;51.07
14089;BME280;7120;52.890;6.040;2023-06-14T07:10:08;101879.97;;;23.16;50.83
14089;BME280;7120;52.890;6.040;2023-06-14T07:12:33;101883.31;;;23.56;46.37
14089;BME280;7120;52.890;6.040;2023-06-14T07:15:04;101885.84;;;24.20;44.87
14089;BME280;7120;52.890;6.040;2023-06-14T07:17:30;101896.81;;;24.51;42.47
14089;BME280;7120;52.890;6.040;2023-06-14T07:19:55;101897.44;;;24.87;42.45
14089;BME280;7120;52.890;6.040;2023-06-14T07:22:21;101891.09;;;25.13;43.76
14089;BME280;7120;52.890;6.040;2023-06-14T07:24:46;101891.03;;;25.36;42.04
14089;BME280;7120;52.890;6.040;2023-06-14T07:27:12;101892.34;;;25.15;40.87
14089;BME280;7120;52.890;6.040;2023-06-14T07:29:38;101891.72;;;25.82;39.35
14089;BME280;7120;52.890;6.040;2023-06-14T07:32:04;101882.19;;;25.90;39.85
14089;BME280;7120;52.890;6.040;2023-06-14T07:34:30;101889.34;;;26.18;37.92
14089;BME280;7120;52.890;6.040;2023-06-14T07:36:55;101899.00;;;25.60;39.04
14089;BME280;7120;52.890;6.040;2023-06-14T07:39:20;101894.38;;;26.05;38.31
14089;BME280;7120;52.890;6.040;2023-06-14T07:41:46;101894.13;;;25.84;38.54
14089;BME280;7120;52.890;6.040;2023-06-14T07:44:11;101895.50;;;26.34;37.83
14089;BME280;7120;52.890;6.040;2023-06-14T07:46:37;101896.81;;;26.07;38.49
14089;BME280;7120;52.890;6.040;2023-06-14T07:49:03;101896.13;;;26.17;37.23
14089;BME280;7120;52.890;6.040;2023-06-14T07:51:28;101894.16;;;26.54;37.70
14089;BME280;7120;52.890;6.040;2023-06-14T07:53:54;101891.94;;;26.78;36.76
14089;BME280;7120;52.890;6.040;2023-06-14T07:56:19;101900.91;;;26.50;36.33
14089;BME280;7120;52.890;6.040;2023-06-14T07:58:45;101906.47;;;26.87;36.69
14089;BME280;7120;52.890;6.040;2023-06-14T08:01:10;101911.06;;;26.62;35.24
14089;BME280;7120;52.890;6.040;2023-06-14T08:03:37;101912.97;;;26.95;35.87
14089;BME280;7120;52.890;6.040;2023-06-14T08:06:02;101920.78;;;27.16;36.74
14089;BME280;7120;52.890;6.040;2023-06-14T08:08:29;101917.66;;;27.28;35.78
14089;BME280;7120;52.890;6.040;2023-06-14T08:10:55;101911.44;;;27.63;34.19
14089;BME280;7120;52.890;6.040;2023-06-14T08:13:21;101918.09;;;26.45;34.73
14089;BME280;7120;52.890;6.040;2023-06-14T08:15:46;101910.31;;;26.68;35.59
14089;BME280;7120;52.890;6.040;2023-06-14T08:18:11;101917.97;;;27.19;34.55
14089;BME280;7120;52.890;6.040;2023-06-14T08:20:37;101901.69;;;27.46;35.00
14089;BME280;7120;52.890;6.040;2023-06-14T08:23:02;101915.13;;;27.71;35.46
14089;BME280;7120;52.890;6.040;2023-06-14T08:25:29;101899.94;;;27.86;34.69
14089;BME280;7120;52.890;6.040;2023-06-14T08:27:54;101903.88;;;27.71;33.60
14089;BME280;7120;52.890;6.040;2023-06-14T08:30:20;101905.75;;;28.46;32.58
14089;BME280;7120;52.890;6.040;2023-06-14T08:32:45;101883.22;;;27.42;33.31
14089;BME280;7120;52.890;6.040;2023-06-14T08:35:10;101900.00;;;27.31;34.82
14089;BME280;7120;52.890;6.040;2023-06-14T08:37:41;101901.84;;;27.68;34.00
14089;BME280;7120;52.890;6.040;2023-06-14T08:40:17;101896.72;;;27.87;34.51
14089;BME280;7120;52.890;6.040;2023-06-14T08:42:43;101890.38;;;28.08;32.18
14089;BME280;7120;52.890;6.040;2023-06-14T08:45:09;101903.50;;;27.76;32.58
14089;BME280;7120;52.890;6.040;2023-06-14T08:47:35;101906.38;;;27.97;33.04
14089;BME280;7120;52.890;6.040;2023-06-14T08:50:02;101893.63;;;27.41;31.67
14089;BME280;7120;52.890;6.040;2023-06-14T08:52:30;101889.91;;;27.92;31.86
14089;BME280;7120;52.890;6.040;2023-06-14T08:54:59;101883.94;;;28.11;33.06
14089;BME280;7120;52.890;6.040;2023-06-14T08:57:26;101893.28;;;28.37;32.12
14089;BME280;7120;52.890;6.040;2023-06-14T08:59:56;101893.31;;;28.55;32.09
14089;BME280;7120;52.890;6.040;2023-06-14T09:02:22;101888.84;;;28.32;30.93
14089;BME280;7120;52.890;6.040;2023-06-14T09:04:47;101899.56;;;27.95;31.98
14089;BME280;7120;52.890;6.040;2023-06-14T09:07:14;101896.56;;;27.62;31.57
14089;BME280;7120;52.890;6.040;2023-06-14T09:09:40;101901.22;;;28.06;31.20
14089;BME280;7120;52.890;6.040;2023-06-14T09:12:15;101895.72;;;28.53;30.73
14089;BME280;7120;52.890;6.040;2023-06-14T09:14:41;101898.91;;;28.44;30.95
14089;BME280;7120;52.890;6.040;2023-06-14T09:17:07;101901.72;;;28.37;31.53
14089;BME280;7120;52.890;6.040;2023-06-14T09:19:33;101904.16;;;28.53;30.90
14089;BME280;7120;52.890;6.040;2023-06-14T09:22:00;101897.03;;;27.68;31.03
14089;BME280;7120;52.890;6.040;2023-06-14T09:24:25;101899.94;;;27.86;31.69
14089;BME280;7120;52.890;6.040;2023-06-14T09:26:51;101904.06;;;27.37;32.14
14089;BME280;7120;52.890;6.040;2023-06-14T09:29:18;101910.13;;;28.30;31.40
14089;BME280;7120;52.890;6.040;2023-06-14T09:31:46;101904.56;;;29.30;30.40
14089;BME280;7120;52.890;6.040;2023-06-14T09:34:11;101905.72;;;29.68;31.28
14089;BME280;7120;52.890;6.040;2023-06-14T09:36:39;101902.47;;;29.73;30.27
14089;BME280;7120;52.890;6.040;2023-06-14T09:39:05;101898.13;;;29.40;28.64
14089;BME280;7120;52.890;6.040;2023-06-14T09:41:31;101902.56;;;29.23;29.56
14089;BME280;7120;52.890;6.040;2023-06-14T09:43:58;101905.41;;;29.26;28.90
14089;BME280;7120;52.890;6.040;2023-06-14T09:46:26;101908.59;;;29.46;29.31
14089;BME280;7120;52.890;6.040;2023-06-14T09:48:52;101900.94;;;29.50;28.36
14089;BME280;7120;52.890;6.040;2023-06-14T09:51:18;101899.75;;;29.30;28.40
14089;BME280;7120;52.890;6.040;2023-06-14T09:53:46;101906.59;;;29.33;29.91
14089;BME280;7120;52.890;6.040;2023-06-14T09:56:16;101904.19;;;28.74;29.02
14089;BME280;7120;52.890;6.040;2023-06-14T09:58:47;101913.75;;;27.47;30.11
14089;BME280;7120;52.890;6.040;2023-06-14T10:01:15;101904.56;;;27.53;30.07
14089;BME280;7120;52.890;6.040;2023-06-14T10:03:43;101895.50;;;27.78;31.06
14089;BME280;7120;52.890;6.040;2023-06-14T10:06:09;101902.88;;;28.29;30.33
14089;BME280;7120;52.890;6.040;2023-06-14T10:08:36;101903.50;;;27.76;30.83
14089;BME280;7120;52.890;6.040;2023-06-14T10:11:02;101899.16;;;27.96;30.45
14089;BME280;7120;52.890;6.040;2023-06-14T10:13:31;101901.56;;;27.98;31.04
14089;BME280;7120;52.890;6.040;2023-06-14T10:24:01;101901.38;;;28.95;30.22
14089;BME280;7120;52.890;6.040;2023-06-14T10:26:29;101898.13;;;28.58;29.95
14089;BME280;7120;52.890;6.040;2023-06-14T10:28:57;101897.75;;;28.70;30.46
14089;BME280;7120;52.890;6.040;2023-06-14T10:31:39;101894.13;;;29.09;29.34
14089;BME280;7120;52.890;6.040;2023-06-14T10:34:06;101883.25;;;29.11;28.63
14089;BME280;7120;52.890;6.040;2023-06-14T10:36:31;101891.72;;;29.11;29.83
14089;BME280;7120;52.890;6.040;2023-06-14T10:39:09;101890.50;;;28.55;29.88
14089;BME280;7120;52.890;6.040;2023-06-14T10:41:37;101890.91;;;28.78;30.05
14089;BME280;7120;52.890;6.040;2023-06-14T10:46:55;101897.59;;;28.09;31.48
14089;BME280;7120;52.890;6.040;2023-06-14T10:49:45;101897.72;;;28.52;31.55
14089;BME280;7120;52.890;6.040;2023-06-14T10:52:15;101872.78;;;28.43;29.88
14089;BME280;7120;52.890;6.040;2023-06-14T10:55:16;101884.50;;;28.92;28.59
14089;BME280;7120;52.890;6.040;2023-06-14T10:57:52;101876.81;;;28.53;28.55
14089;BME280;7120;52.890;6.040;2023-06-14T11:00:22;101874.41;;;27.47;28.95
14089;BME280;7120;52.890;6.040;2023-06-14T11:05:26;101879.13;;;28.15;29.79
14089;BME280;7120;52.890;6.040;2023-06-14T11:10:38;101869.97;;;28.47;28.91
14089;BME280;7120;52.890;6.040;2023-06-14T11:13:05;101868.66;;;28.02;29.24
14089;BME280;7120;52.890;6.040;2023-06-14T11:15:31;101867.16;;;28.36;29.74
14089;BME280;7120;52.890;6.040;2023-06-14T11:18:09;101873.59;;;28.58;28.25
14089;BME280;7120;52.890;6.040;2023-06-14T11:20:35;101871.09;;;29.64;27.73
14089;BME280;7120;52.890;6.040;2023-06-14T11:23:01;101876.28;;;29.72;28.22
14089;BME280;7120;52.890;6.040;2023-06-14T11:25:27;101865.59;;;30.78;26.28
14089;BME280;7120;52.890;6.040;2023-06-14T11:27:56;101866.72;;;29.38;27.44
14089;BME280;7120;52.890;6.040;2023-06-14T11:30:22;101864.75;;;29.17;27.94
14089;BME280;7120;52.890;6.040;2023-06-14T11:32:49;101855.50;;;28.59;28.05
14089;BME280;7120;52.890;6.040;2023-06-14T11:35:16;101863.56;;;28.57;28.40
14089;BME280;7120;52.890;6.040;2023-06-14T11:37:42;101850.03;;;29.90;27.16
14089;BME280;7120;52.890;6.040;2023-06-14T11:40:10;101870.16;;;29.88;28.12
14089;BME280;7120;52.890;6.040;2023-06-14T11:42:37;101862.91;;;29.91;26.15
14089;BME280;7120;52.890;6.040;2023-06-14T11:45:04;101862.03;;;30.12;26.74
14089;BME280;7120;52.890;6.040;2023-06-14T11:47:33;101865.50;;;29.39;27.75
14089;BME280;7120;52.890;6.040;2023-06-14T11:49:59;101859.41;;;29.65;26.45
14089;BME280;7120;52.890;6.040;2023-06-14T11:52:25;101844.25;;;28.98;26.56
14089;BME280;7120;52.890;6.040;2023-06-14T11:54:51;101843.00;;;28.21;27.88
14089;BME280;7120;52.890;6.040;2023-06-14T11:57:20;101842.16;;;28.17;28.09
14089;BME280;7120;52.890;6.040;2023-06-14T11:59:46;101847.47;;;28.72;28.41
14089;BME280;7120;52.890;6.040;2023-06-14T12:02:15;101848.66;;;29.03;27.99
14089;BME280;7120;52.890;6.040;2023-06-14T12:04:41;101847.38;;;29.43;27.37
14089;BME280;7120;52.890;6.040;2023-06-14T12:07:14;101851.50;;;28.99;28.04
14089;BME280;7120;52.890;6.040;2023-06-14T12:12:26;101857.94;;;30.16;26.69
14089;BME280;7120;52.890;6.040;2023-06-14T12:14:52;101862.91;;;29.87;27.78
14089;BME280;7120;52.890;6.040;2023-06-14T12:17:18;101866.28;;;29.61;27.17
14089;BME280;7120;52.890;6.040;2023-06-14T12:19:45;101850.91;;;29.72;25.92
14089;BME280;7120;52.890;6.040;2023-06-14T12:22:12;101855.34;;;29.66;26.79
14089;BME280;7120;52.890;6.040;2023-06-14T12:24:37;101859.88;;;29.32;26.37
14089;BME280;7120;52.890;6.040;2023-06-14T12:27:05;101859.53;;;29.08;27.09
14089;BME280;7120;52.890;6.040;2023-06-14T12:29:31;101856.31;;;29.03;26.78
14089;BME280;7120;52.890;6.040;2023-06-14T12:31:57;101845.75;;;29.57;26.18
14089;BME280;7120;52.890;6.040;2023-06-14T12:34:23;101847.88;;;28.60;27.24
14089;BME280;7120;52.890;6.040;2023-06-14T12:36:50;101858.63;;;28.08;28.96
14089;BME280;7120;52.890;6.040;2023-06-14T12:39:16;101855.88;;;29.33;28.71
14089;BME280;7120;52.890;6.040;2023-06-14T12:41:41;101849.22;;;29.86;26.32
14089;BME280;7120;52.890;6.040;2023-06-14T12:44:07;101854.44;;;30.57;26.37
14089;BME280;7120;52.890;6.040;2023-06-14T12:46:33;101847.22;;;30.52;26.64
14089;BME280;7120;52.890;6.040;2023-06-14T12:48:58;101851.50;;;30.08;26.87
14089;BME280;7120;52.890;6.040;2023-06-14T12:51:24;101853.25;;;29.88;28.51
14089;BME280;7120;52.890;6.040;2023-06-14T12:53:50;101850.66;;;30.22;25.53
14089;BME280;7120;52.890;6.040;2023-06-14T12:56:16;101854.91;;;29.82;26.26
14089;BME280;7120;52.890;6.040;2023-06-14T12:58:42;101851.50;;;28.71;27.50
14089;BME280;7120;52.890;6.040;2023-06-14T13:01:07;101861.06;;;29.56;27.22
14089;BME280;7120;52.890;6.040;2023-06-14T13:03:33;101857.41;;;30.39;26.31
14089;BME280;7120;52.890;6.040;2023-06-14T13:06:01;101863.34;;;31.04;25.49
14089;BME280;7120;52.890;6.040;2023-06-14T13:08:28;101867.47;;;30.96;25.72
14089;BME280;7120;52.890;6.040;2023-06-14T13:10:53;101853.16;;;30.06;26.60
14089;BME280;7120;52.890;6.040;2023-06-14T13:13:19;101863.19;;;31.18;25.98
14089;BME280;7120;52.890;6.040;2023-06-14T13:15:44;101852.09;;;29.82;27.28